Aérodrome :
LOGIN :

S'inscrire | Disclaimer

   EN    FR    IT 

 










Légende :    VFR   VFR Marginal   IFR   IFR Intensif   IFR Très Intensif
Visi : 
Plafond : 
>= 8 km
>= 3000ft
5 à 8 km
1000 à 3000 ft
1500m à 5 km
500 à 1000 ft
800 à 1500m
200 à 500 ft
< 800m
< 200 ft
Symboles :   Orages  Brouillard  Fortes neiges  Fortes précipitations  Vent > 20 kt
SIGMETs :   Divers  Orages  Givrage  Turbulence  Onde Orograph.  Cendres Volcan.






- Altitude de l'aérodrome : 20 ft


EBFN - Koksijde

DERNIER METAR :
  • 291925Z AUTO 21008KT 6000 BKN009/// BKN029/// 06/05 Q1022 GRN

METARs EXPIRÉS :
  • 291855Z AUTO 21007KT 9000 OVC009/// 06/06 Q1023 GRN
  • 291843Z AUTO 21008KT 8000 OVC007/// 06/06 Q1023 GRN
  • 291825Z AUTO 21007KT 9999 OVC006/// 06/06 Q1023 YLO
  • 291755Z AUTO 22007KT 9999 OVC005/// 06/06 Q1023 YLO
  • 291725Z AUTO 22008KT 8000 OVC005/// 06/05 Q1023 YLO
  • 291655Z AUTO 22009KT 9999 OVC010/// 06/05 Q1023 GRN

TAF TAF EBFN
Valide du 29 à 19h jusqu'au 30 à 07h UTC


291541Z 2919/3007 22012KT 9999 BKN012
PROB30
TEMPO 2919/2924 6000 -RADZ OVC010
BECMG 3000/3002 26015G25KT 9999 BKN010
PROB40
TEMPO 3000/3007 7000 -RA OVC008 BY EBWM



MET'MAP, la Météo Aéronautique d'un coup d'oeil ! - Copyright ORBIFLY Décembre 2007 - Disclaimer

ORBIFLY MET'MAP TEAM :

Programmation & Développement : Alexandra Zaïnal
Sur une idée originale de : Baudouin d'Aumeries
Soutien technique & logistique : Manuel Goepfert
Assistance : Marc-Olivier Méhu




SOURCES & CREDITS :

   NOAA